createdAt,value
2018-01-08T00:00:07.052Z,11.87
2018-01-08T00:01:07.042Z,11.71
2018-01-08T00:02:07.032Z,11.54
2018-01-08T00:03:07.024Z,11.34
2018-01-08T00:04:07.012Z,11.46
2018-01-08T00:05:07.005Z,11.60
2018-01-08T00:06:06.989Z,11.66
2018-01-08T00:07:06.991Z,11.32
2018-01-08T00:08:06.978Z,11.13
2018-01-08T00:09:06.972Z,11.67
2018-01-08T00:10:06.966Z,11.95
2018-01-08T00:11:06.953Z,11.64
2018-01-08T00:12:06.944Z,11.29
2018-01-08T00:13:06.938Z,10.92
2018-01-08T00:14:06.927Z,11.21
2018-01-08T00:15:06.916Z,10.82
2018-01-08T00:16:06.906Z,10.90
2018-01-08T00:17:07.859Z,10.95
2018-01-08T00:18:06.888Z,11.23
2018-01-08T00:19:06.876Z,10.99
2018-01-08T00:20:06.890Z,10.27
2018-01-08T00:21:06.864Z,10.79
2018-01-08T00:22:06.855Z,10.79
2018-01-08T00:23:06.844Z,9.45
2018-01-08T00:24:06.837Z,10.39
2018-01-08T00:25:06.835Z,10.71
2018-01-08T00:26:06.820Z,10.96
2018-01-08T00:27:06.811Z,10.70
2018-01-08T00:28:06.794Z,10.90
2018-01-08T00:29:06.780Z,9.90
2018-01-08T00:30:06.782Z,10.67
2018-01-08T00:31:06.779Z,10.06
2018-01-08T00:32:06.765Z,10.78
2018-01-08T00:33:06.754Z,10.26
2018-01-08T00:34:06.742Z,9.93
2018-01-08T00:35:06.732Z,9.65
2018-01-08T00:36:06.723Z,9.62
2018-01-08T00:37:06.725Z,10.02
2018-01-08T00:38:06.705Z,10.81
2018-01-08T00:39:06.700Z,10.63
2018-01-08T00:40:06.692Z,10.40
2018-01-08T00:41:06.682Z,10.23
2018-01-08T00:42:06.672Z,10.05
2018-01-08T00:43:06.658Z,10.59
2018-01-08T00:44:06.650Z,10.18
2018-01-08T00:45:06.642Z,10.18
2018-01-08T00:46:06.632Z,10.30
2018-01-08T00:47:06.624Z,9.71
2018-01-08T00:48:06.616Z,10.58
2018-01-08T00:49:06.600Z,9.79
2018-01-08T00:50:06.594Z,10.50
2018-01-08T00:51:06.590Z,10.14
2018-01-08T00:52:06.582Z,9.37
2018-01-08T00:53:06.574Z,10.10
2018-01-08T00:54:06.559Z,10.32
2018-01-08T00:55:06.558Z,9.58
2018-01-08T00:56:06.547Z,10.04
2018-01-08T00:57:06.539Z,9.80
2018-01-08T00:58:06.527Z,10.16
2018-01-08T00:59:06.519Z,10.05
2018-01-08T01:00:06.506Z,10.44
2018-01-08T01:01:06.495Z,10.59
2018-01-08T01:02:06.490Z,10.46
2018-01-08T01:03:06.476Z,9.80
2018-01-08T01:04:06.468Z,9.71
2018-01-08T01:05:06.464Z,9.48
2018-01-08T01:06:06.450Z,9.69
2018-01-08T01:07:06.443Z,10.45
2018-01-08T01:08:06.433Z,10.09
2018-01-08T01:09:06.426Z,9.94
2018-01-08T01:10:06.422Z,10.03
2018-01-08T01:11:06.408Z,10.04
2018-01-08T01:12:06.399Z,9.65
2018-01-08T01:13:06.392Z,10.09
2018-01-08T01:14:06.376Z,9.98
2018-01-08T01:15:06.370Z,10.37
2018-01-08T01:16:06.362Z,10.52
2018-01-08T01:17:06.351Z,10.46
2018-01-08T01:18:06.346Z,9.89
2018-01-08T01:19:06.333Z,10.02
2018-01-08T01:20:06.328Z,10.34
2018-01-08T01:21:06.316Z,9.95
2018-01-08T01:22:06.303Z,10.01
2018-01-08T01:23:06.295Z,10.24
2018-01-08T01:24:06.288Z,10.17
2018-01-08T01:25:06.280Z,10.72
2018-01-08T01:26:06.267Z,9.89
2018-01-08T01:27:06.262Z,10.07
2018-01-08T01:28:06.251Z,10.37
2018-01-08T01:29:06.250Z,10.38
2018-01-08T01:30:06.231Z,9.97
2018-01-08T01:31:06.224Z,10.36
2018-01-08T01:32:06.221Z,10.39
2018-01-08T01:33:06.212Z,10.77
2018-01-08T01:34:06.197Z,10.13
2018-01-08T01:35:06.191Z,10.19
2018-01-08T01:36:06.178Z,10.21
2018-01-08T01:37:06.167Z,10.27
2018-01-08T01:38:06.160Z,10.21
2018-01-08T01:39:06.155Z,10.26
2018-01-08T01:40:06.149Z,10.27
2018-01-08T01:41:06.135Z,9.86
2018-01-08T01:42:06.121Z,9.64
2018-01-08T01:43:06.128Z,11.08
2018-01-08T01:44:06.114Z,10.46
2018-01-08T01:45:06.100Z,10.14
2018-01-08T01:46:06.090Z,9.88
2018-01-08T01:47:06.075Z,10.04
2018-01-08T01:48:06.075Z,10.30
2018-01-08T01:49:06.077Z,10.01
2018-01-08T01:50:06.061Z,10.70
2018-01-08T01:51:06.046Z,10.20
2018-01-08T01:52:06.039Z,10.35
2018-01-08T01:53:06.026Z,9.89
2018-01-08T01:54:06.019Z,10.03
2018-01-08T01:55:06.016Z,10.21
2018-01-08T01:56:05.993Z,9.92
2018-01-08T01:57:05.988Z,10.32
2018-01-08T01:58:05.974Z,10.28
2018-01-08T01:59:05.969Z,10.01
2018-01-08T02:00:05.966Z,10.27
2018-01-08T02:01:05.954Z,9.92
2018-01-08T02:02:05.949Z,10.37
2018-01-08T02:03:05.939Z,10.54
2018-01-08T02:04:05.931Z,10.22
2018-01-08T02:05:05.922Z,9.37
2018-01-08T02:06:05.909Z,9.46
2018-01-08T02:07:05.902Z,10.48
2018-01-08T02:08:05.890Z,10.28
2018-01-08T02:09:05.885Z,9.76
2018-01-08T02:10:05.879Z,10.05
2018-01-08T02:11:05.865Z,10.23
2018-01-08T02:12:05.853Z,10.12
2018-01-08T02:13:05.848Z,10.34
2018-01-08T02:14:05.835Z,10.30
2018-01-08T02:15:05.816Z,10.17
2018-01-08T02:16:05.815Z,9.93
2018-01-08T02:17:05.809Z,9.78
2018-01-08T02:18:05.798Z,9.54
2018-01-08T02:19:05.790Z,10.00
2018-01-08T02:20:05.784Z,9.25
2018-01-08T02:21:05.775Z,9.84
2018-01-08T02:22:05.766Z,9.95
2018-01-08T02:23:05.754Z,10.01
2018-01-08T02:24:05.743Z,9.93
2018-01-08T02:25:05.738Z,10.28
2018-01-08T02:26:05.726Z,10.19
2018-01-08T02:27:05.726Z,10.37
2018-01-08T02:28:05.713Z,9.78
2018-01-08T02:29:05.703Z,10.19
2018-01-08T02:30:05.695Z,9.69
2018-01-08T02:31:05.690Z,9.46
2018-01-08T02:32:05.679Z,10.31
2018-01-08T02:33:05.671Z,9.98
2018-01-08T02:34:05.660Z,9.83
2018-01-08T02:35:05.655Z,9.29
2018-01-08T02:36:05.644Z,9.21
2018-01-08T02:37:05.629Z,8.98
2018-01-08T02:38:05.620Z,9.20
2018-01-08T02:39:05.614Z,8.68
2018-01-08T02:40:05.604Z,8.60
2018-01-08T02:41:05.599Z,9.18
2018-01-08T02:42:05.582Z,9.32
2018-01-08T02:43:05.572Z,8.55
2018-01-08T02:44:05.568Z,9.03
2018-01-08T02:45:05.563Z,9.08
2018-01-08T02:46:05.552Z,8.90
2018-01-08T02:47:05.543Z,9.37
2018-01-08T02:48:05.534Z,9.08
2018-01-08T02:49:05.525Z,8.90
2018-01-08T02:50:05.512Z,8.66
2018-01-08T02:51:05.509Z,8.44
2018-01-08T02:52:05.493Z,8.97
2018-01-08T02:53:05.486Z,8.78
2018-01-08T02:54:05.477Z,8.74
2018-01-08T02:55:05.469Z,8.59
2018-01-08T02:56:05.459Z,8.75
2018-01-08T02:57:05.446Z,8.99
2018-01-08T02:58:05.438Z,9.48
2018-01-08T02:59:05.431Z,9.00
2018-01-08T03:00:05.427Z,9.00
2018-01-08T03:01:05.414Z,9.01
2018-01-08T03:02:05.413Z,9.08
2018-01-08T03:03:05.391Z,8.82
2018-01-08T03:04:05.387Z,8.87
2018-01-08T03:05:05.381Z,8.36
2018-01-08T03:06:05.376Z,8.58
2018-01-08T03:07:05.363Z,8.78
2018-01-08T03:08:05.352Z,8.47
2018-01-08T03:09:05.338Z,8.97
2018-01-08T03:10:05.327Z,8.80
2018-01-08T03:11:05.327Z,8.52
2018-01-08T03:12:05.312Z,8.74
2018-01-08T03:13:05.303Z,8.24
2018-01-08T03:14:05.301Z,8.60
2018-01-08T03:15:05.285Z,8.90
2018-01-08T03:16:05.287Z,8.53
2018-01-08T03:17:05.267Z,8.56
2018-01-08T03:18:05.263Z,8.43
2018-01-08T03:19:05.256Z,8.01
2018-01-08T03:20:05.243Z,8.47
2018-01-08T03:21:05.241Z,8.47
2018-01-08T03:22:05.227Z,8.30
2018-01-08T03:23:05.219Z,8.02
2018-01-08T03:24:05.204Z,8.25
2018-01-08T03:25:05.196Z,8.15
2018-01-08T03:26:05.190Z,8.64
2018-01-08T03:27:05.181Z,8.16
2018-01-08T03:28:05.174Z,8.62
2018-01-08T03:29:05.162Z,8.62
2018-01-08T03:30:05.158Z,8.51
2018-01-08T03:31:05.148Z,9.24
2018-01-08T03:32:05.133Z,8.24
2018-01-08T03:33:05.122Z,8.26
2018-01-08T03:34:05.119Z,8.34
2018-01-08T03:35:05.107Z,8.34
2018-01-08T03:36:05.105Z,8.52
2018-01-08T03:37:05.086Z,8.12
2018-01-08T03:38:05.083Z,8.43
2018-01-08T03:39:05.074Z,8.36
2018-01-08T03:40:05.063Z,8.69
2018-01-08T03:41:05.065Z,8.74
2018-01-08T03:42:05.046Z,8.71
2018-01-08T03:43:05.040Z,8.37
2018-01-08T03:44:05.026Z,8.14
2018-01-08T03:45:05.018Z,8.65
2018-01-08T03:46:05.013Z,8.68
2018-01-08T03:47:04.996Z,8.56
2018-01-08T03:48:04.988Z,8.37
2018-01-08T03:49:04.972Z,8.44
2018-01-08T03:50:04.971Z,8.56
2018-01-08T03:51:04.962Z,8.24
2018-01-08T03:52:04.954Z,8.36
2018-01-08T03:53:04.946Z,8.87
2018-01-08T03:54:04.936Z,9.14
2018-01-08T03:55:04.930Z,8.86
2018-01-08T03:56:04.916Z,8.88
2018-01-08T03:57:05.571Z,8.28
2018-01-08T03:58:04.904Z,8.04
2018-01-08T03:59:04.895Z,8.41
2018-01-08T04:00:04.895Z,8.60
2018-01-08T04:01:04.877Z,7.97
2018-01-08T04:02:04.867Z,8.41
2018-01-08T04:03:04.859Z,9.24
2018-01-08T04:04:04.848Z,8.92
2018-01-08T04:05:04.829Z,8.52
2018-01-08T04:06:04.826Z,8.75
2018-01-08T04:07:04.818Z,8.38
2018-01-08T04:08:04.810Z,8.42
2018-01-08T04:09:04.799Z,8.75
2018-01-08T04:10:04.793Z,8.69
2018-01-08T04:11:04.788Z,8.76
2018-01-08T04:12:04.778Z,8.66
2018-01-08T04:13:04.819Z,8.74
2018-01-08T04:14:04.764Z,9.23
2018-01-08T04:15:04.746Z,8.97
2018-01-08T04:16:04.743Z,8.98
2018-01-08T04:17:04.735Z,8.64
2018-01-08T04:18:04.726Z,9.05
2018-01-08T04:19:04.718Z,8.42
2018-01-08T04:20:04.703Z,8.56
2018-01-08T04:21:04.694Z,8.71
2018-01-08T04:22:04.685Z,8.05
2018-01-08T04:23:04.674Z,8.89
2018-01-08T04:24:04.664Z,8.68
2018-01-08T04:25:04.658Z,8.97
2018-01-08T04:26:04.646Z,8.99
2018-01-08T04:27:04.638Z,8.93
2018-01-08T04:28:04.631Z,9.10
2018-01-08T04:29:04.623Z,9.36
2018-01-08T04:30:04.614Z,9.61
2018-01-08T04:31:04.608Z,9.34
2018-01-08T04:32:04.594Z,9.40
2018-01-08T04:33:04.583Z,9.44
2018-01-08T04:34:04.575Z,9.56
2018-01-08T04:35:04.558Z,10.28
2018-01-08T04:36:04.560Z,9.78
2018-01-08T04:37:04.543Z,10.03
2018-01-08T04:38:04.543Z,10.07
2018-01-08T04:39:04.534Z,9.82
2018-01-08T04:40:04.521Z,9.77
2018-01-08T04:41:04.511Z,10.21
2018-01-08T04:42:04.498Z,9.75
2018-01-08T04:43:04.495Z,10.37
2018-01-08T04:44:04.487Z,9.49
2018-01-08T04:45:04.479Z,9.28
2018-01-08T04:46:04.469Z,8.95
2018-01-08T04:47:04.464Z,9.47
2018-01-08T04:48:04.452Z,9.47
2018-01-08T04:49:04.440Z,9.23
2018-01-08T04:50:04.435Z,9.80
2018-01-08T04:51:04.415Z,9.68
2018-01-08T04:52:04.417Z,10.00
2018-01-08T04:53:04.410Z,9.55
2018-01-08T04:54:04.397Z,9.26
2018-01-08T04:55:04.394Z,9.70
2018-01-08T04:56:04.375Z,9.80
2018-01-08T04:57:04.378Z,9.84
2018-01-08T04:58:04.360Z,9.98
2018-01-08T04:59:04.354Z,9.62
2018-01-08T05:00:04.337Z,9.90
2018-01-08T05:01:04.332Z,10.87
2018-01-08T05:02:04.328Z,10.26
2018-01-08T05:03:04.316Z,10.02
2018-01-08T05:04:04.299Z,10.46
2018-01-08T05:05:04.297Z,9.54
2018-01-08T05:06:04.285Z,10.07
2018-01-08T05:07:04.276Z,10.44
2018-01-08T05:08:04.269Z,10.33
2018-01-08T05:09:04.263Z,9.69
2018-01-08T05:10:04.259Z,10.70
2018-01-08T05:11:04.260Z,10.62
2018-01-08T05:12:04.236Z,10.05
2018-01-08T05:13:04.229Z,10.09
2018-01-08T05:14:04.215Z,10.04
2018-01-08T05:15:04.213Z,10.34
2018-01-08T05:16:04.204Z,10.33
2018-01-08T05:17:04.197Z,10.20
2018-01-08T05:18:04.177Z,10.42
2018-01-08T05:19:04.171Z,11.10
2018-01-08T05:20:04.164Z,10.90
2018-01-08T05:21:04.153Z,10.52
2018-01-08T05:22:04.140Z,10.78
2018-01-08T05:23:04.138Z,10.14
2018-01-08T05:24:04.123Z,10.58
2018-01-08T05:25:04.119Z,10.66
2018-01-08T05:26:04.119Z,10.35
2018-01-08T05:27:04.101Z,10.06
2018-01-08T05:28:04.085Z,10.49
2018-01-08T05:29:04.083Z,10.56
2018-01-08T05:30:04.084Z,10.45
2018-01-08T05:31:04.066Z,10.69
2018-01-08T05:32:04.052Z,11.36
2018-01-08T05:33:04.049Z,10.64
2018-01-08T05:34:04.049Z,10.72
2018-01-08T05:35:04.027Z,11.24
2018-01-08T05:36:04.015Z,10.75
2018-01-08T05:37:04.012Z,11.20
2018-01-08T05:38:03.998Z,10.74
2018-01-08T05:39:04.010Z,10.89
2018-01-08T05:40:11.668Z,11.04
2018-01-08T05:42:48.366Z,10.77
2018-01-08T05:43:48.320Z,11.14
2018-01-08T05:46:33.115Z,10.73
2018-01-08T05:47:32.671Z,10.64
2018-01-08T05:50:16.086Z,10.70
2018-01-08T05:51:16.014Z,11.00
2018-01-08T05:53:59.649Z,11.80
2018-01-08T05:54:59.568Z,11.40
2018-01-08T05:57:43.005Z,12.02
2018-01-08T05:58:42.969Z,11.54
2018-01-08T05:59:42.959Z,10.92
2018-01-08T06:00:43.328Z,11.78
2018-01-08T06:01:42.888Z,11.79
2018-01-08T06:02:42.880Z,11.48
2018-01-08T06:03:42.866Z,11.45
2018-01-08T06:04:42.868Z,12.33
2018-01-08T06:05:42.847Z,12.80
2018-01-08T06:06:42.848Z,11.92
2018-01-08T06:07:42.839Z,11.70
2018-01-08T06:08:42.830Z,12.53
2018-01-08T06:09:42.813Z,12.76
2018-01-08T06:10:42.804Z,11.99
2018-01-08T06:11:42.799Z,11.95
2018-01-08T06:12:42.794Z,12.14
2018-01-08T06:13:42.780Z,12.04
2018-01-08T06:14:42.768Z,11.76
2018-01-08T06:15:42.762Z,12.52
2018-01-08T06:16:42.756Z,12.92
2018-01-08T06:17:42.748Z,12.64
2018-01-08T06:18:42.738Z,12.70
2018-01-08T06:19:42.733Z,12.34
2018-01-08T06:20:42.728Z,12.62
2018-01-08T06:21:42.710Z,12.54
2018-01-08T06:22:42.710Z,12.56
2018-01-08T06:23:42.693Z,13.27
2018-01-08T06:24:42.687Z,12.54
2018-01-08T06:25:42.673Z,12.86
2018-01-08T06:26:42.672Z,12.78
2018-01-08T06:27:42.661Z,13.08
2018-01-08T06:28:42.636Z,12.98
2018-01-08T06:29:42.845Z,12.53
2018-01-08T06:30:42.633Z,12.57
2018-01-08T06:31:42.623Z,12.50
2018-01-08T06:32:42.609Z,12.46
2018-01-08T06:33:42.602Z,12.64
2018-01-08T06:34:42.597Z,12.59
2018-01-08T06:35:42.587Z,13.26
2018-01-08T06:36:42.577Z,13.47
2018-01-08T06:37:42.570Z,13.18
2018-01-08T06:38:42.559Z,13.53
2018-01-08T06:39:42.551Z,12.61
2018-01-08T06:40:42.676Z,13.00
2018-01-08T06:41:42.538Z,12.76
2018-01-08T06:42:42.525Z,13.19
2018-01-08T06:43:42.514Z,13.53
2018-01-08T06:44:42.502Z,13.33
2018-01-08T06:45:42.495Z,12.65
2018-01-08T06:46:42.484Z,13.27
2018-01-08T06:47:42.481Z,13.72
2018-01-08T06:48:42.470Z,13.38
2018-01-08T06:49:42.464Z,13.72
2018-01-08T06:50:42.457Z,12.88
2018-01-08T06:51:42.447Z,13.40
2018-01-08T06:52:42.439Z,13.57
2018-01-08T06:53:42.422Z,13.79
2018-01-08T06:54:42.416Z,13.65
2018-01-08T06:55:42.405Z,13.51
2018-01-08T06:56:42.398Z,13.04
2018-01-08T06:57:42.397Z,12.91
2018-01-08T06:58:42.378Z,13.03
2018-01-08T06:59:42.379Z,12.91
2018-01-08T07:00:42.367Z,13.68
2018-01-08T07:01:42.356Z,13.43
2018-01-08T07:02:42.356Z,13.94
2018-01-08T07:03:42.349Z,13.32
2018-01-08T07:04:42.365Z,13.55
2018-01-08T07:05:42.315Z,13.39
2018-01-08T07:06:42.313Z,13.25
2018-01-08T07:07:42.302Z,13.58
2018-01-08T07:08:42.292Z,13.65
2018-01-08T07:09:42.283Z,13.86
2018-01-08T07:10:42.277Z,14.06
2018-01-08T07:11:42.266Z,12.99
2018-01-08T07:12:42.257Z,13.16
2018-01-08T07:13:42.251Z,13.42
2018-01-08T07:14:42.251Z,13.95
2018-01-08T07:15:42.237Z,12.85
2018-01-08T07:16:42.223Z,13.21
2018-01-08T07:17:42.214Z,12.96
2018-01-08T07:18:42.201Z,13.22
2018-01-08T07:19:42.194Z,12.84
2018-01-08T07:20:42.185Z,13.41
2018-01-08T07:21:42.181Z,13.87
2018-01-08T07:22:42.165Z,14.17
2018-01-08T07:23:42.166Z,14.30
2018-01-08T07:24:42.201Z,14.24
2018-01-08T07:25:42.141Z,13.59
2018-01-08T07:26:42.139Z,13.09
2018-01-08T07:27:42.121Z,13.22
2018-01-08T07:28:42.119Z,13.68
2018-01-08T07:29:42.129Z,13.89
2018-01-08T07:30:42.100Z,13.88
2018-01-08T07:31:42.083Z,13.71
2018-01-08T07:32:42.081Z,13.46
2018-01-08T07:33:42.088Z,12.82
2018-01-08T07:34:42.058Z,13.20
2018-01-08T07:35:42.056Z,13.01
2018-01-08T07:36:42.044Z,13.40
2018-01-08T07:37:42.035Z,12.85
2018-01-08T07:38:42.021Z,13.10
2018-01-08T07:39:42.036Z,13.20
2018-01-08T07:40:42.011Z,12.53
2018-01-08T07:41:42.005Z,12.63
2018-01-08T07:42:41.992Z,13.37
2018-01-08T07:43:41.976Z,13.86
2018-01-08T07:44:42.062Z,13.79
2018-01-08T07:45:41.973Z,13.56
2018-01-08T07:46:42.531Z,12.69
2018-01-08T07:47:41.947Z,12.68
2018-01-08T07:48:41.938Z,13.16
2018-01-08T07:49:41.929Z,13.04
2018-01-08T07:50:41.945Z,12.99
2018-01-08T07:51:41.911Z,13.37
2018-01-08T07:52:41.906Z,13.62
2018-01-08T07:53:41.893Z,13.90
2018-01-08T07:54:41.897Z,13.86
2018-01-08T07:55:41.870Z,13.47
2018-01-08T07:56:41.862Z,13.62
2018-01-08T07:57:41.857Z,13.93
2018-01-08T07:58:41.844Z,13.46
2018-01-08T07:59:41.841Z,13.14
2018-01-08T08:00:41.831Z,13.50
2018-01-08T08:01:41.818Z,13.93
2018-01-08T08:02:41.816Z,13.90
2018-01-08T08:03:41.810Z,14.11
2018-01-08T08:04:41.793Z,14.23
2018-01-08T08:05:41.778Z,14.02
2018-01-08T08:06:41.775Z,14.16
2018-01-08T08:07:41.764Z,13.96
2018-01-08T08:08:41.758Z,14.36
2018-01-08T08:09:41.750Z,14.76
2018-01-08T08:10:41.745Z,13.86
2018-01-08T08:11:41.728Z,14.29
2018-01-08T08:12:41.718Z,14.22
2018-01-08T08:13:41.712Z,13.48
2018-01-08T08:14:41.706Z,13.61
2018-01-08T08:15:41.696Z,13.69
2018-01-08T08:16:41.690Z,13.80
2018-01-08T08:17:41.672Z,14.99
2018-01-08T08:18:41.662Z,14.64
2018-01-08T08:19:41.659Z,14.27
2018-01-08T08:20:41.648Z,13.74
2018-01-08T08:21:41.641Z,14.38
2018-01-08T08:22:41.632Z,14.08
2018-01-08T08:23:41.623Z,14.00
2018-01-08T08:24:41.611Z,14.27
2018-01-08T08:25:41.608Z,14.73
2018-01-08T08:26:41.599Z,14.90
2018-01-08T08:27:41.591Z,14.54
2018-01-08T08:28:41.584Z,14.30
2018-01-08T08:29:41.572Z,13.73
2018-01-08T08:30:41.563Z,14.78
2018-01-08T08:31:41.556Z,14.14
2018-01-08T08:32:41.545Z,14.46
2018-01-08T08:33:41.536Z,14.60
2018-01-08T08:34:41.523Z,15.00
2018-01-08T08:35:41.516Z,14.62
2018-01-08T08:36:41.517Z,14.98
2018-01-08T08:37:41.552Z,14.41
2018-01-08T08:38:42.998Z,14.33
2018-01-08T08:39:41.485Z,15.22
2018-01-08T08:40:41.467Z,15.05
2018-01-08T08:41:41.471Z,14.83
2018-01-08T08:42:41.456Z,14.90
2018-01-08T08:43:41.446Z,15.17
2018-01-08T08:44:41.453Z,15.20
2018-01-08T08:45:41.422Z,15.10
2018-01-08T08:46:41.418Z,15.16
2018-01-08T08:47:41.410Z,15.32
2018-01-08T08:48:41.439Z,15.12
2018-01-08T08:49:41.395Z,15.36
2018-01-08T08:50:41.383Z,14.66
2018-01-08T08:51:41.373Z,14.53
2018-01-08T08:52:41.366Z,15.52
2018-01-08T08:53:41.359Z,14.92
2018-01-08T08:54:41.338Z,14.67
2018-01-08T08:55:41.336Z,14.56
2018-01-08T08:56:41.327Z,15.23
2018-01-08T08:57:41.321Z,14.84
2018-01-08T08:58:41.309Z,15.26
2018-01-08T08:59:41.302Z,15.49
2018-01-08T09:00:41.298Z,15.98
2018-01-08T09:01:41.287Z,15.52
2018-01-08T09:02:42.054Z,15.25
2018-01-08T09:03:41.270Z,15.39
2018-01-08T09:04:41.258Z,14.77
2018-01-08T09:05:41.249Z,15.70
2018-01-08T09:06:41.276Z,15.18
2018-01-08T09:07:41.230Z,15.14
2018-01-08T09:08:41.221Z,15.78
2018-01-08T09:09:41.218Z,15.70
2018-01-08T09:10:41.203Z,16.10
2018-01-08T09:11:41.197Z,16.14
2018-01-08T09:12:41.186Z,15.34
2018-01-08T09:13:41.179Z,15.12
2018-01-08T09:14:41.169Z,15.00
2018-01-08T09:15:41.159Z,14.68
2018-01-08T09:16:41.154Z,15.49
2018-01-08T09:17:41.143Z,15.60
2018-01-08T09:18:41.135Z,14.80
2018-01-08T09:19:41.126Z,15.18
2018-01-08T09:20:41.117Z,15.25
2018-01-08T09:21:41.110Z,15.37
2018-01-08T09:22:41.096Z,15.45
2018-01-08T09:23:41.086Z,15.72
2018-01-08T09:24:41.085Z,15.22
2018-01-08T09:25:41.066Z,15.18
2018-01-08T09:26:41.054Z,15.42
2018-01-08T09:27:41.051Z,15.65
2018-01-08T09:28:41.047Z,15.47
2018-01-08T09:29:41.036Z,15.34
2018-01-08T09:30:41.026Z,14.37
2018-01-08T09:31:41.029Z,15.26
2018-01-08T09:32:41.010Z,15.23
2018-01-08T09:33:41.000Z,15.43
2018-01-08T09:34:40.986Z,15.99
2018-01-08T09:35:40.980Z,15.80
2018-01-08T09:36:40.972Z,15.26
2018-01-08T09:37:40.965Z,14.95
2018-01-08T09:38:40.942Z,14.53
2018-01-08T09:39:40.938Z,14.78
2018-01-08T09:40:40.936Z,15.19
2018-01-08T09:41:40.930Z,15.39
2018-01-08T09:42:40.920Z,15.57
2018-01-08T09:43:40.911Z,15.84
2018-01-08T09:44:40.899Z,15.24
2018-01-08T09:45:40.893Z,14.83
2018-01-08T09:46:40.885Z,15.29
2018-01-08T09:47:40.878Z,15.13
2018-01-08T09:48:40.867Z,15.06
2018-01-08T09:49:40.860Z,15.33
2018-01-08T09:50:40.852Z,14.86
2018-01-08T09:51:40.840Z,15.60
2018-01-08T09:52:40.833Z,15.00
2018-01-08T09:53:40.818Z,15.64
2018-01-08T09:54:40.814Z,15.45
2018-01-08T09:55:40.807Z,15.59
2018-01-08T09:56:40.794Z,15.34
2018-01-08T09:57:40.781Z,15.02
2018-01-08T09:57:52.786Z,0.58
2018-01-08T09:59:40.770Z,15.00
2018-01-08T10:00:40.759Z,14.74
2018-01-08T10:01:40.759Z,15.02
2018-01-08T10:02:40.749Z,15.06
2018-01-08T10:03:40.736Z,14.58
2018-01-08T10:04:40.729Z,14.55
2018-01-08T10:05:40.717Z,15.86
2018-01-08T10:06:40.708Z,15.67
2018-01-08T10:07:40.699Z,15.28
2018-01-08T10:08:40.689Z,14.98
2018-01-08T10:09:40.686Z,15.08
2018-01-08T10:10:40.675Z,14.91
2018-01-08T10:11:40.667Z,14.45
2018-01-08T10:12:40.658Z,14.69
2018-01-08T10:13:40.648Z,14.05
2018-01-08T10:14:40.648Z,14.11
2018-01-08T10:15:40.636Z,15.00
2018-01-08T10:16:40.629Z,13.87
2018-01-08T10:17:40.609Z,14.49
2018-01-08T10:18:40.603Z,14.76
2018-01-08T10:19:40.601Z,14.47
2018-01-08T10:20:40.584Z,13.95
2018-01-08T10:21:40.575Z,14.37
2018-01-08T10:22:40.569Z,14.54
2018-01-08T10:23:40.558Z,14.34
2018-01-08T10:24:40.551Z,14.14
2018-01-08T10:25:40.548Z,14.19
2018-01-08T10:26:40.540Z,14.39
2018-01-08T10:27:40.529Z,14.72
2018-01-08T10:28:40.520Z,14.50
2018-01-08T10:29:40.512Z,13.85
2018-01-08T10:30:40.502Z,13.48
2018-01-08T10:31:40.493Z,14.43
2018-01-08T10:32:40.486Z,13.77
2018-01-08T10:33:40.476Z,13.30
2018-01-08T10:34:40.466Z,14.36
2018-01-08T10:35:40.456Z,13.11
2018-01-08T10:36:40.452Z,12.90
2018-01-08T10:37:40.443Z,12.36
2018-01-08T10:38:40.428Z,12.80
2018-01-08T10:39:40.434Z,12.85
2018-01-08T10:40:40.416Z,12.43
2018-01-08T10:41:40.403Z,12.46
2018-01-08T10:42:40.414Z,12.48
2018-01-08T10:43:40.397Z,13.01
2018-01-08T10:44:40.392Z,12.84
2018-01-08T10:45:40.375Z,11.79
2018-01-08T10:46:40.371Z,12.12
2018-01-08T10:47:40.364Z,12.28
2018-01-08T10:48:40.359Z,13.01
2018-01-08T10:49:40.346Z,13.19
2018-01-08T10:50:40.337Z,13.15
2018-01-08T10:51:40.323Z,13.20
2018-01-08T10:52:40.320Z,13.28
2018-01-08T10:53:40.311Z,12.84
2018-01-08T10:54:40.299Z,12.18
2018-01-08T10:55:40.297Z,11.97
2018-01-08T10:56:40.281Z,12.20
2018-01-08T10:57:40.283Z,12.23
2018-01-08T10:58:40.273Z,13.06
2018-01-08T10:59:40.266Z,12.34
2018-01-08T11:00:40.260Z,12.72
2018-01-08T11:01:40.247Z,13.01
2018-01-08T11:02:40.240Z,12.50
2018-01-08T11:03:40.242Z,12.46
2018-01-08T11:04:40.225Z,12.73
2018-01-08T11:05:40.215Z,12.60
2018-01-08T11:06:40.207Z,12.87
2018-01-08T11:07:40.201Z,12.78
2018-01-08T11:08:40.193Z,13.04
2018-01-08T11:09:40.185Z,12.34
2018-01-08T11:10:40.180Z,15.49
2018-01-08T11:11:40.177Z,16.23
2018-01-08T11:12:40.162Z,38.80
2018-01-08T11:13:40.153Z,21.14
2018-01-08T11:14:40.144Z,16.54
2018-01-08T11:15:40.136Z,13.14
2018-01-08T11:16:40.126Z,12.43
2018-01-08T11:17:40.121Z,12.73
2018-01-08T11:18:40.112Z,12.54
2018-01-08T11:19:40.105Z,12.46
2018-01-08T11:20:40.095Z,12.46
2018-01-08T11:21:40.093Z,12.20
2018-01-08T11:22:40.085Z,12.10
2018-01-08T11:23:40.079Z,11.73
2018-01-08T11:24:40.068Z,11.39
2018-01-08T11:25:40.060Z,11.70
2018-01-08T11:26:40.056Z,12.09
2018-01-08T11:27:40.047Z,12.30
2018-01-08T11:28:40.029Z,11.54
2018-01-08T11:29:40.029Z,12.43
2018-01-08T11:30:40.020Z,11.73
2018-01-08T11:31:40.014Z,11.80
2018-01-08T11:31:52.010Z,0.50
2018-01-08T11:33:39.994Z,12.64
2018-01-08T11:34:40.025Z,11.89
2018-01-08T11:35:39.980Z,12.17
2018-01-08T11:36:39.974Z,12.54
2018-01-08T11:37:39.969Z,12.32
2018-01-08T11:38:39.962Z,12.68
2018-01-08T11:39:39.952Z,12.39
2018-01-08T11:40:39.941Z,12.32
2018-01-08T11:41:39.938Z,12.85
2018-01-08T11:42:39.930Z,12.54
2018-01-08T11:43:39.928Z,12.50
2018-01-08T11:44:39.919Z,11.86
2018-01-08T11:45:39.897Z,12.16
2018-01-08T11:46:39.896Z,12.18
2018-01-08T11:47:39.886Z,11.94
2018-01-08T11:48:39.879Z,12.11
2018-01-08T11:49:39.873Z,12.58
2018-01-08T11:50:39.866Z,13.12
2018-01-08T11:51:39.858Z,12.58
2018-01-08T11:52:39.850Z,12.26
2018-01-08T11:53:39.846Z,12.92
2018-01-08T11:54:39.846Z,12.56
2018-01-08T11:55:39.822Z,12.28
2018-01-08T11:56:39.826Z,12.44
2018-01-08T11:57:39.821Z,12.78
2018-01-08T11:58:39.806Z,12.32
2018-01-08T11:59:39.802Z,12.24
2018-01-08T12:00:40.615Z,12.52
2018-01-08T12:01:39.780Z,12.17
2018-01-08T12:02:39.771Z,12.18
2018-01-08T12:03:39.764Z,12.51
2018-01-08T12:04:39.755Z,12.65
2018-01-08T12:05:39.748Z,13.39
2018-01-08T12:06:39.746Z,13.00
2018-01-08T12:07:39.734Z,12.48
2018-01-08T12:08:39.733Z,12.26
2018-01-08T12:09:39.721Z,12.38
2018-01-08T12:10:39.714Z,12.22
2018-01-08T12:11:39.708Z,12.75
2018-01-08T12:12:39.698Z,12.08
2018-01-08T12:13:39.696Z,12.74
2018-01-08T12:14:39.678Z,13.01
2018-01-08T12:15:39.677Z,12.58
2018-01-08T12:16:39.664Z,11.95
2018-01-08T12:17:39.663Z,12.65
2018-01-08T12:18:39.652Z,12.34
2018-01-08T12:19:39.646Z,12.15
2018-01-08T12:20:39.637Z,12.48
2018-01-08T12:21:39.629Z,12.83
2018-01-08T12:22:39.624Z,13.10
2018-01-08T12:23:39.614Z,13.09
2018-01-08T12:24:39.650Z,13.10
2018-01-08T12:25:39.621Z,12.46
2018-01-08T12:26:39.590Z,12.25
2018-01-08T12:27:39.588Z,11.91
2018-01-08T12:28:39.574Z,12.96
2018-01-08T12:29:39.567Z,13.41
2018-01-08T12:30:39.570Z,12.57
2018-01-08T12:31:39.552Z,12.94
2018-01-08T12:32:39.546Z,12.00
2018-01-08T12:33:39.539Z,12.42
2018-01-08T12:34:39.526Z,13.52
2018-01-08T12:35:39.526Z,12.62
2018-01-08T12:36:40.125Z,12.27
2018-01-08T12:37:39.509Z,13.14
2018-01-08T12:38:39.497Z,12.62
2018-01-08T12:39:39.497Z,12.98
2018-01-08T12:40:39.486Z,13.12
2018-01-08T12:41:39.480Z,13.12
2018-01-08T12:42:39.475Z,13.00
2018-01-08T12:43:39.461Z,12.89
2018-01-08T12:44:39.451Z,12.78
2018-01-08T12:45:39.446Z,13.07
2018-01-08T12:46:39.438Z,12.81
2018-01-08T12:47:39.431Z,13.08
2018-01-08T12:48:39.425Z,13.06
2018-01-08T12:49:39.421Z,13.28
2018-01-08T12:50:39.414Z,13.36
2018-01-08T12:51:39.413Z,13.28
2018-01-08T12:52:39.401Z,13.24
2018-01-08T12:53:39.388Z,12.62
2018-01-08T12:54:39.377Z,13.00
2018-01-08T12:55:39.382Z,12.55
2018-01-08T12:56:39.386Z,12.78
2018-01-08T12:57:39.357Z,12.56
2018-01-08T12:58:39.350Z,12.44
2018-01-08T12:59:39.346Z,12.91
2018-01-08T13:00:39.335Z,12.46
2018-01-08T13:01:39.345Z,12.92
2018-01-08T13:02:39.321Z,12.72
2018-01-08T13:03:39.311Z,13.01
2018-01-08T13:04:39.306Z,12.05
2018-01-08T13:05:39.301Z,12.72
2018-01-08T13:06:39.296Z,12.57